Monarch, Colorado
Current Conditions -  °F | °C
As of 5:24 PM on Saturday 25 Oct 2014 (Local Time) from KMYP Reporting Station
Clear Clear  
Wind Chill: 50°   Ceiling: Unl
Heat Index: 50°   Visibility: 10mi
Dew Point: 12°   Wind: 20mph
Humidity: 22%   Direction: 270°W
Pressure: 30.63"   Gusts: NA
Location:  38.54°N, 106.31°W
Report Text: KMYP 252324Z AUTO 27017KT 10SM CLR 10/M11 A3063 RMK AO2
Loading
Personal Weather Stations






























Interactive Weather Map New forecast layout! Learn more

10-Day Weather Forecast

Advertisements
Track Severe Weather on mobile